Time;durP1;ratioP1;P1;durP2;ratioP2;P2;SDS_P1;SDS_P2;PMS_P1;PMS_P2;Temp;Humidity;BMP_temperature;BMP_pressure;BME280_temperature;BME280_humidity;BME280_pressure;Samples;Min_cycle;Max_cycle;Signal;HPM_P1;HPM_P2
2022/12/04 00:00:18;;;;;;;;;24.50;24.00;;;;;6.62;61.87;100755.16;2096815;28;46766;-64
2022/12/04 00:01:21;;;;;;;;;23.75;23.75;;;;;6.64;61.75;100748.09;2096144;28;46317;-65
2022/12/04 00:02:22;;;;;;;;;27.40;27.40;;;;;6.66;61.83;100759.50;2096536;28;46887;-64
2022/12/04 00:03:22;;;;;;;;;29.00;27.50;;;;;6.66;61.75;100744.56;2096343;28;46425;-63
2022/12/04 00:04:22;;;;;;;;;27.50;26.50;;;;;6.66;61.72;100747.19;2096675;28;46478;-64
2022/12/04 00:05:22;;;;;;;;;35.00;30.50;;;;;6.66;61.65;100741.94;2096659;28;45609;-64
2022/12/04 00:06:23;;;;;;;;;24.00;21.50;;;;;6.65;61.17;100740.19;2086452;28;46679;-64
2022/12/04 00:07:24;;;;;;;;;29.00;24.00;;;;;6.65;61.43;100739.31;2086215;28;46803;-65
2022/12/04 00:08:24;;;;;;;;;27.50;26.50;;;;;6.63;61.39;100741.94;2085769;28;46629;-64
2022/12/04 00:09:24;;;;;;;;;25.00;23.75;;;;;6.61;61.34;100735.81;2087343;28;45395;-63
2022/12/04 00:10:25;;;;;;;;;22.25;22.00;;;;;6.60;61.41;100736.66;2095929;28;46291;-64
2022/12/04 00:11:28;;;;;;;;;25.25;25.00;;;;;6.59;61.43;100736.69;2096357;28;46484;-63
2022/12/04 00:12:28;;;;;;;;;28.80;27.80;;;;;6.59;61.49;100741.94;2096258;28;46369;-63
2022/12/04 00:13:28;;;;;;;;;30.00;25.75;;;;;6.59;61.40;100736.69;2096381;28;46557;-65
2022/12/04 00:14:29;;;;;;;;;25.50;25.50;;;;;6.60;61.47;100731.38;2096231;28;46488;-63
2022/12/04 00:15:29;;;;;;;;;25.00;24.00;;;;;6.61;61.32;100738.44;2095746;28;46787;-64
2022/12/04 00:16:30;;;;;;;;;33.00;31.75;;;;;6.63;61.69;100735.81;2096370;28;45880;-65
2022/12/04 00:17:30;;;;;;;;;27.75;24.25;;;;;6.62;61.59;100732.28;2070247;28;46951;-63
2022/12/04 00:18:30;;;;;;;;;30.50;27.25;;;;;6.63;61.34;100734.03;2070313;28;46710;-63
2022/12/04 00:19:31;;;;;;;;;18.25;18.25;;;;;6.63;61.55;100735.81;2096094;28;46975;-63
2022/12/04 00:20:31;;;;;;;;;33.50;28.75;;;;;6.63;61.34;100733.16;2097664;28;46159;-65
2022/12/04 00:21:31;;;;;;;;;28.50;26.75;;;;;6.62;61.50;100734.06;2097744;28;46608;-64
2022/12/04 00:22:32;;;;;;;;;31.00;28.00;;;;;6.62;61.41;100726.13;2097751;28;46346;-65
2022/12/04 00:23:34;;;;;;;;;21.75;21.25;;;;;6.61;61.39;100737.56;2097894;28;46293;-63
2022/12/04 00:24:34;;;;;;;;;28.60;27.60;;;;;6.61;61.42;100733.19;2097589;28;46866;-63
2022/12/04 00:25:35;;;;;;;;;28.00;23.50;;;;;6.60;61.37;100731.38;2097411;28;45751;-65
2022/12/04 00:26:35;;;;;;;;;28.00;23.75;;;;;6.59;61.33;100734.91;2094980;28;46545;-63
2022/12/04 00:27:35;;;;;;;;;24.50;24.00;;;;;6.57;61.35;100730.53;2096870;28;47006;-62
2022/12/04 00:28:36;;;;;;;;;27.75;27.00;;;;;6.56;61.14;100734.94;2096288;28;46022;-66
2022/12/04 00:29:36;;;;;;;;;32.20;29.80;;;;;6.55;61.37;100729.69;2089014;28;46912;-63
2022/12/04 00:30:40;;;;;;;;;21.75;21.50;;;;;6.54;61.59;100735.84;2089593;28;45640;-63
2022/12/04 00:31:40;;;;;;;;;26.20;25.60;;;;;6.52;61.69;100733.22;2089658;28;46737;-63
2022/12/04 00:32:40;;;;;;;;;23.75;20.75;;;;;6.51;61.41;100736.72;2097722;28;46283;-64
2022/12/04 00:33:41;;;;;;;;;23.50;23.50;;;;;6.52;61.23;100743.75;2097930;28;46265;-63
2022/12/04 00:34:41;;;;;;;;;28.00;26.75;;;;;6.52;61.62;100740.25;2097938;28;46566;-64
2022/12/04 00:35:42;;;;;;;;;22.75;22.50;;;;;6.52;61.45;100742.88;2097716;28;46847;-64
2022/12/04 00:36:42;;;;;;;;;29.00;27.25;;;;;6.51;61.74;100746.41;2097092;28;46248;-64
2022/12/04 00:37:43;;;;;;;;;27.50;27.50;;;;;6.49;61.70;100734.09;2097177;28;46388;-63
2022/12/04 00:38:43;;;;;;;;;23.75;22.50;;;;;6.49;61.51;100731.47;2097077;28;46298;-64
2022/12/04 00:39:43;;;;;;;;;25.75;21.50;;;;;6.50;61.76;100734.97;2097724;28;46351;-65
2022/12/04 00:40:49;;;;;;;;;33.00;27.75;;;;;6.51;61.71;100731.47;2097942;28;46583;-65
2022/12/04 00:41:49;;;;;;;;;24.60;22.60;;;;;6.52;61.57;100732.34;2097686;28;47011;-61
2022/12/04 00:42:49;;;;;;;;;23.00;21.00;;;;;6.51;61.35;100734.09;2097676;28;46686;-64
2022/12/04 00:43:50;;;;;;;;;23.00;21.25;;;;;6.51;61.39;100734.09;2097620;28;46680;-62
2022/12/04 00:44:51;;;;;;;;;23.40;21.80;;;;;6.51;61.65;100734.09;2097628;28;46861;-62
2022/12/04 00:45:51;;;;;;;;;31.25;26.00;;;;;6.51;61.80;100730.59;2097873;28;46667;-62
2022/12/04 00:46:51;;;;;;;;;23.00;23.00;;;;;6.51;61.13;100735.84;2097346;28;46318;-64
2022/12/04 00:47:52;;;;;;;;;27.50;25.75;;;;;6.52;61.65;100729.69;2097506;28;46712;-62
2022/12/04 00:48:53;;;;;;;;;29.75;28.25;;;;;6.51;61.66;100727.94;2097796;28;46074;-65
2022/12/04 00:49:53;;;;;;;;;27.40;25.40;;;;;6.48;61.74;100727.09;2097876;28;46751;-64
2022/12/04 00:50:54;;;;;;;;;20.25;16.25;;;;;6.47;61.70;100724.44;2098045;28;45949;-63
2022/12/04 00:51:54;;;;;;;;;25.50;25.25;;;;;6.47;61.75;100734.97;2097506;28;46765;-63
2022/12/04 00:52:56;;;;;;;;;27.25;25.00;;;;;6.44;61.32;100735.88;2097719;28;46754;-62
2022/12/04 00:53:57;;;;;;;;;27.20;25.20;;;;;6.44;61.55;100732.34;2097801;28;46888;-62
2022/12/04 00:54:57;;;;;;;;;27.75;25.50;;;;;6.43;61.80;100731.50;2098105;28;45806;-64
2022/12/04 00:55:58;;;;;;;;;28.75;24.50;;;;;6.43;61.95;100730.63;2097623;28;46286;-63
2022/12/04 00:56:58;;;;;;;;;27.00;26.25;;;;;6.42;61.87;100735.00;2097718;28;46623;-65
2022/12/04 00:57:58;;;;;;;;;30.50;26.25;;;;;6.43;61.51;100727.97;2097575;28;47226;-64
2022/12/04 00:59:00;;;;;;;;;25.75;25.00;;;;;6.44;61.72;100729.72;2097858;28;46879;-64
2022/12/04 01:00:00;;;;;;;;;24.20;19.20;;;;;6.43;61.83;100728.84;2097119;28;46313;-65
2022/12/04 01:01:06;;;;;;;;;31.00;26.25;;;;;6.43;61.82;100733.25;2097479;28;46540;-63
2022/12/04 01:02:07;;;;;;;;;30.00;25.20;;;;;6.44;61.82;100737.63;2097344;28;46576;-63
2022/12/04 01:03:08;;;;;;;;;27.75;25.25;;;;;6.44;61.61;100735.00;2097794;28;46328;-62
2022/12/04 01:04:08;;;;;;;;;49.20;41.20;;;;;6.44;61.73;100738.50;2097310;28;46245;-64
2022/12/04 01:05:09;;;;;;;;;17.00;15.25;;;;;6.44;61.93;100737.63;2097995;28;45818;-64
2022/12/04 01:06:31;;;;;;;;;24.40;23.00;;;;;6.44;62.01;100729.72;2097477;28;46365;-64
2022/12/04 01:07:32;;;;;;;;;32.40;29.20;;;;;6.44;61.38;100729.72;2097537;28;46882;-64
2022/12/04 01:08:33;;;;;;;;;26.50;23.50;;;;;6.43;61.87;100728.84;2097801;28;46126;-65
2022/12/04 01:09:33;;;;;;;;;25.80;22.80;;;;;6.44;61.83;100733.22;2097481;28;46504;-65
2022/12/04 01:10:36;;;;;;;;;24.25;22.00;;;;;6.46;61.63;100723.56;2097552;28;46648;-62
2022/12/04 01:11:37;;;;;;;;;26.60;22.80;;;;;6.46;61.79;100720.03;2095693;28;46421;-62
2022/12/04 01:12:37;;;;;;;;;29.40;27.00;;;;;6.46;61.54;100736.72;2088623;28;45920;-62
2022/12/04 01:13:38;;;;;;;;;30.50;27.75;;;;;6.46;61.86;100728.81;2097564;28;46312;-64
2022/12/04 01:14:38;;;;;;;;;22.25;19.00;;;;;6.47;61.97;100727.06;2097469;28;46494;-65
2022/12/04 01:15:40;;;;;;;;;30.75;24.50;;;;;6.45;61.85;100727.06;2097326;28;46164;-64
2022/12/04 01:16:40;;;;;;;;;27.60;26.60;;;;;6.47;61.71;100730.56;2097162;28;46783;-62
2022/12/04 01:17:41;;;;;;;;;22.50;22.00;;;;;6.47;61.67;100724.44;2097825;28;46273;-64
2022/12/04 01:18:41;;;;;;;;;21.00;19.00;;;;;6.47;62.16;100722.66;2097518;28;46809;-65
2022/12/04 01:19:41;;;;;;;;;28.75;26.50;;;;;6.48;61.63;100721.81;2097673;28;47035;-64
2022/12/04 01:20:50;;;;;;;;;23.75;17.75;;;;;6.47;61.68;100720.03;2097607;28;46357;-64
2022/12/04 01:21:50;;;;;;;;;31.20;27.80;;;;;6.47;61.79;100722.66;2097425;28;46587;-64
2022/12/04 01:22:50;;;;;;;;;26.00;23.50;;;;;6.47;61.74;100722.66;2097374;28;46592;-62
2022/12/04 01:23:50;;;;;;;;;26.50;23.25;;;;;6.47;61.93;100714.75;2097358;28;46787;-67
2022/12/04 01:24:55;;;;;;;;;27.75;25.50;;;;;6.49;61.92;100720.94;2097193;28;46815;-65
2022/12/04 01:25:57;;;;;;;;;25.40;25.40;;;;;6.50;61.75;100716.53;2096879;28;46849;-65
2022/12/04 01:26:58;;;;;;;;;30.20;24.20;;;;;6.52;61.70;100714.75;2094979;28;46605;-63
2022/12/04 01:27:58;;;;;;;;;32.50;28.00;;;;;6.53;61.89;100723.53;2097450;28;46634;-63
2022/12/04 01:28:59;;;;;;;;;27.50;26.75;;;;;6.54;61.88;100718.25;2097372;28;46262;-64
2022/12/04 01:29:59;;;;;;;;;25.75;23.00;;;;;6.56;62.04;100723.50;2097509;28;46699;-64
2022/12/04 01:31:05;;;;;;;;;8.75;5.00;;;;;6.56;61.97;100726.16;2097112;28;46747;-63
2022/12/04 01:32:06;;;;;;;;;27.60;26.20;;;;;6.57;61.89;100725.25;2097044;28;47176;-64
2022/12/04 01:33:06;;;;;;;;;26.50;26.50;;;;;6.56;61.79;100723.50;2097339;28;46279;-63
2022/12/04 01:34:06;;;;;;;;;26.25;24.25;;;;;6.55;61.59;100720.00;2097339;28;46164;-64
2022/12/04 01:35:07;;;;;;;;;22.75;21.00;;;;;6.54;61.64;100715.63;2097459;28;46286;-64
2022/12/04 01:36:11;;;;;;;;;27.75;27.00;;;;;6.54;61.74;100718.25;2091868;28;46561;-63
2022/12/04 01:37:11;;;;;;;;;26.60;25.60;;;;;6.53;62.18;100716.50;2093818;28;46982;-63
2022/12/04 01:38:12;;;;;;;;;28.50;27.00;;;;;6.52;61.93;100713.88;2097492;28;46976;-63
2022/12/04 01:39:12;;;;;;;;;28.75;23.75;;;;;6.51;61.61;100720.03;2097297;28;46168;-64
2022/12/04 01:40:14;;;;;;;;;34.00;31.25;;;;;6.49;62.01;100713.03;2097407;28;46603;-63
2022/12/04 01:41:18;;;;;;;;;26.20;22.20;;;;;6.49;61.63;100707.75;2097236;28;46663;-65
2022/12/04 01:42:19;;;;;;;;;28.40;25.80;;;;;6.48;61.92;100710.41;2097116;28;46940;-62
2022/12/04 01:43:20;;;;;;;;;40.75;33.00;;;;;6.50;62.08;100703.34;2087789;28;46381;-64
2022/12/04 01:44:25;;;;;;;;;34.80;28.40;;;;;6.51;61.88;100706.88;2079783;28;45979;-65
2022/12/04 01:45:43;;;;;;;;;27.60;24.60;;;;;6.49;61.86;100705.13;2096702;28;46463;-61
2022/12/04 01:46:49;;;;;;;;;31.00;28.20;;;;;6.51;61.84;100713.00;2087560;28;46396;-65
2022/12/04 01:47:54;;;;;;;;;31.20;30.40;;;;;6.50;61.91;100711.25;2088495;28;46571;-64
2022/12/04 01:48:55;;;;;;;;;30.60;27.20;;;;;6.49;62.06;100713.03;2097219;28;46474;-64
2022/12/04 01:49:56;;;;;;;;;34.00;30.75;;;;;6.49;61.70;100713.03;2097158;28;46244;-63
2022/12/04 01:51:03;;;;;;;;;28.60;27.80;;;;;6.49;62.07;100718.28;2096346;28;46585;-64
2022/12/04 01:52:20;;;;;;;;;30.40;27.40;;;;;6.49;61.94;100722.69;2096909;28;46812;-64
2022/12/04 01:53:20;;;;;;;;;30.40;28.60;;;;;6.49;61.91;100720.94;2088978;28;46576;-63
2022/12/04 01:54:27;;;;;;;;;29.75;24.75;;;;;6.49;62.42;100723.56;2096406;28;46656;-64
2022/12/04 01:55:29;;;;;;;;;29.80;28.20;;;;;6.50;62.03;100719.16;2097209;28;46619;-63
2022/12/04 01:56:33;;;;;;;;;27.20;25.40;;;;;6.49;62.01;100726.19;2097211;28;46163;-64
2022/12/04 01:57:34;;;;;;;;;32.00;26.40;;;;;6.49;61.88;100720.06;2096902;28;46420;-64
2022/12/04 01:58:43;;;;;;;;;26.00;23.80;;;;;6.48;61.76;100719.19;2097592;28;46920;-63
2022/12/04 01:59:54;;;;;;;;;32.20;30.20;;;;;6.50;62.11;100719.16;2097277;28;46196;-63
2022/12/04 02:01:00;;;;;;;;;30.60;29.60;;;;;6.52;61.77;100725.31;2090390;28;46732;-64
2022/12/04 02:02:10;;;;;;;;;33.00;31.00;;;;;6.53;62.01;100728.81;2097273;28;46698;-64
2022/12/04 02:03:12;;;;;;;;;32.60;29.60;;;;;6.53;62.09;100727.06;2097138;28;46300;-63
2022/12/04 02:04:12;;;;;;;;;29.20;28.80;;;;;6.53;62.31;100716.50;2097192;28;46725;-63
2022/12/04 02:05:16;;;;;;;;;34.25;29.25;;;;;6.55;61.76;100725.28;2096408;28;46490;-65
2022/12/04 02:06:17;;;;;;;;;30.00;28.20;;;;;6.54;61.80;100720.88;2097159;28;46885;-63
2022/12/04 02:07:17;;;;;;;;;22.50;22.50;;;;;6.53;62.10;100719.13;2097076;28;46617;-64
2022/12/04 02:08:18;;;;;;;;;28.50;25.50;;;;;6.53;61.79;100721.78;2097138;28;45214;-64
2022/12/04 02:09:20;;;;;;;;;32.25;31.50;;;;;6.54;62.24;100720.00;2097319;28;46333;-63
2022/12/04 02:10:34;;;;;;;;;32.00;30.20;;;;;6.55;62.07;100725.28;2096600;28;46566;-64
2022/12/04 02:11:48;;;;;;;;;30.20;27.20;;;;;6.55;62.34;100720.00;2096567;28;46429;-64
2022/12/04 02:13:09;;;;;;;;;29.20;27.60;;;;;6.57;62.03;100720.00;2090038;28;46091;-64
2022/12/04 02:14:36;;;;;;;;;32.80;26.40;;;;;6.57;61.77;100712.09;2097051;28;46864;-64
2022/12/04 02:15:57;;;;;;;;;27.60;24.60;;;;;6.58;61.88;100714.72;2094425;28;46622;-63
2022/12/04 02:17:18;;;;;;;;;32.20;28.60;;;;;6.57;61.73;100715.59;2097035;28;45504;-65
2022/12/04 02:18:28;;;;;;;;;23.00;21.80;;;;;6.54;61.65;100712.09;2096281;28;46689;-64
2022/12/04 02:19:53;;;;;;;;;34.60;26.40;;;;;6.53;61.91;100711.22;2097187;28;46378;-64
2022/12/04 02:21:04;;;;;;;;;31.60;29.20;;;;;6.54;62.16;100722.66;2097155;28;46734;-64
2022/12/04 02:22:20;;;;;;;;;34.40;30.60;;;;;6.53;62.19;100719.13;2104961;28;46633;-64
2022/12/04 02:23:30;;;;;;;;;36.20;31.80;;;;;6.54;62.07;100714.75;2102469;28;46611;-64
2022/12/04 02:24:42;;;;;;;;;30.60;27.80;;;;;6.54;62.12;100715.63;2096978;28;46459;-64
2022/12/04 02:25:58;;;;;;;;;27.40;25.20;;;;;6.55;62.03;100716.50;2097153;28;45476;-63
2022/12/04 02:27:04;;;;;;;;;27.60;25.40;;;;;6.55;62.16;100716.50;2091316;28;46840;-61
2022/12/04 02:28:29;;;;;;;;;31.40;27.40;;;;;6.57;61.93;100717.34;2096234;28;45609;-65
2022/12/04 02:29:51;;;;;;;;;35.80;31.00;;;;;6.58;62.09;100719.97;2092062;28;46378;-63
2022/12/04 02:30:58;;;;;;;;;33.40;28.20;;;;;6.57;61.66;100715.59;2096941;28;45303;-61
2022/12/04 02:32:06;;;;;;;;;10.80;7.00;;;;;6.56;61.84;100719.13;2087462;28;46834;-63
2022/12/04 02:33:21;;;;;;;;;27.80;26.60;;;;;6.56;62.04;100720.88;2075198;28;46414;-64
2022/12/04 02:34:31;;;;;;;;;29.80;28.20;;;;;6.53;61.92;100716.50;2089788;28;45542;-64
2022/12/04 02:35:41;;;;;;;;;30.40;28.80;;;;;6.54;61.98;100720.00;2096895;28;46347;-63
2022/12/04 02:37:00;;;;;;;;;29.80;25.40;;;;;6.53;61.77;100724.41;2097117;28;46696;-65
2022/12/04 02:38:09;;;;;;;;;29.60;28.60;;;;;6.53;62.18;100719.13;2095159;28;47522;-63
2022/12/04 02:39:26;;;;;;;;;33.60;30.20;;;;;6.53;62.02;100718.25;2096849;28;46442;-62
2022/12/04 02:40:34;;;;;;;;;30.40;28.40;;;;;6.54;61.98;100725.28;2096881;28;46852;-64
2022/12/04 02:41:43;;;;;;;;;28.80;27.60;;;;;6.56;62.02;100723.50;2097159;28;46299;-63
2022/12/04 02:42:46;;;;;;;;;32.20;27.80;;;;;6.57;61.88;100717.34;2096077;28;46877;-63
2022/12/04 02:44:03;;;;;;;;;22.40;21.40;;;;;6.57;62.13;100720.88;2096461;28;46527;-63
2022/12/04 02:45:10;;;;;;;;;32.40;28.00;;;;;6.59;62.11;100720.84;2097054;28;46325;-65
2022/12/04 02:46:23;;;;;;;;;32.20;29.40;;;;;6.58;62.09;100719.97;2096422;28;46852;-63
2022/12/04 02:47:25;;;;;;;;;27.80;27.80;;;;;6.58;61.92;100719.97;2096839;28;46386;-63
2022/12/04 02:48:30;;;;;;;;;30.00;27.20;;;;;6.59;61.96;100710.31;2096730;28;47269;-64
2022/12/04 02:49:36;;;;;;;;;41.40;33.40;;;;;6.59;61.85;100708.53;2094415;28;46665;-63
2022/12/04 02:50:40;;;;;;;;;37.60;35.80;;;;;6.59;61.84;100710.31;2096912;28;47237;-63
2022/12/04 02:51:43;;;;;;;;;36.40;32.60;;;;;6.60;61.87;100709.41;2096993;28;46953;-63
2022/12/04 02:53:00;;;;;;;;;36.20;33.40;;;;;6.59;62.03;100715.59;2096905;28;46379;-64
2022/12/04 02:54:11;;;;;;;;;31.00;27.60;;;;;6.61;62.15;100716.47;2096559;28;46228;-66
2022/12/04 02:55:20;;;;;;;;;35.20;33.40;;;;;6.60;62.09;100720.84;2096300;28;46926;-65
2022/12/04 02:56:43;;;;;;;;;33.00;30.80;;;;;6.60;61.98;100725.25;2096873;28;47192;-64
2022/12/04 02:57:50;;;;;;;;;35.40;29.20;;;;;6.60;61.75;100719.97;2096781;28;46494;-63
2022/12/04 02:58:59;;;;;;;;;35.60;31.20;;;;;6.59;61.90;100721.72;2096780;28;46995;-63
2022/12/04 03:00:04;;;;;;;;;28.20;26.60;;;;;6.59;61.93;100715.59;2096804;28;46719;-65
2022/12/04 03:01:18;;;;;;;;;36.00;30.00;;;;;6.61;62.06;100724.38;2096548;28;47417;-64
2022/12/04 03:02:32;;;;;;;;;32.80;27.60;;;;;6.59;61.96;100720.84;2096615;28;46794;-63
2022/12/04 03:03:33;;;;;;;;;31.80;28.40;;;;;6.59;61.92;100724.38;2096546;28;45753;-63
2022/12/04 03:04:37;;;;;;;;;34.80;32.80;;;;;6.60;61.75;100725.25;2096594;28;46862;-61
2022/12/04 03:05:42;;;;;;;;;36.40;35.20;;;;;6.60;61.93;100722.59;2096381;28;45798;-63
2022/12/04 03:06:47;;;;;;;;;29.40;29.40;;;;;6.59;62.08;100711.19;2096643;28;46616;-64
2022/12/04 03:07:57;;;;;;;;;33.20;28.20;;;;;6.61;62.04;100719.13;2096461;28;47272;-64
2022/12/04 03:09:16;;;;;;;;;34.60;33.40;;;;;6.61;61.97;100720.00;2096458;28;46868;-63
2022/12/04 03:10:24;;;;;;;;;34.60;32.40;;;;;6.64;61.73;100725.25;2096747;28;46532;-63
2022/12/04 03:11:30;;;;;;;;;30.40;28.40;;;;;6.64;61.83;100713.81;2092246;28;46430;-66
2022/12/04 03:12:55;;;;;;;;;30.20;30.20;;;;;6.64;61.86;100713.81;2094386;28;46970;-65
2022/12/04 03:14:08;;;;;;;;;39.20;35.40;;;;;6.66;62.35;100712.03;2096652;28;46491;-63
2022/12/04 03:15:22;;;;;;;;;34.60;29.80;;;;;6.66;61.73;100707.66;2096691;28;46711;-63
2022/12/04 03:16:28;;;;;;;;;40.40;35.60;;;;;6.67;61.98;100709.41;2096710;28;46733;-64
2022/12/04 03:17:35;;;;;;;;;36.00;32.60;;;;;6.69;61.99;100704.97;2096504;28;46408;-63
2022/12/04 03:18:41;;;;;;;;;36.00;33.00;;;;;6.69;61.77;100710.25;2096664;28;47372;-64
2022/12/04 03:19:50;;;;;;;;;32.80;28.80;;;;;6.69;61.99;100710.25;2096468;28;46333;-65
2022/12/04 03:20:58;;;;;;;;;34.60;30.20;;;;;6.70;61.79;100714.63;2096827;28;45849;-64
2022/12/04 03:22:03;;;;;;;;;37.80;31.80;;;;;6.69;61.61;100707.63;2096439;28;45995;-64
2022/12/04 03:23:17;;;;;;;;;36.80;32.00;;;;;6.69;62.04;100710.25;2099806;28;46608;-63
2022/12/04 03:24:28;;;;;;;;;37.20;35.40;;;;;6.69;61.68;100704.09;2096394;28;46526;-63
2022/12/04 03:25:36;;;;;;;;;35.60;30.60;;;;;6.69;61.59;100706.75;2096979;28;45355;-63
2022/12/04 03:26:59;;;;;;;;;36.20;34.20;;;;;6.69;61.88;100704.97;2095651;28;46562;-62
2022/12/04 03:28:06;;;;;;;;;36.40;35.00;;;;;6.71;61.63;100704.97;2083239;28;46628;-64
2022/12/04 03:29:13;;;;;;;;;35.60;34.60;;;;;6.69;61.67;100707.63;2087289;28;46891;-63
2022/12/04 03:30:17;;;;;;;;;39.60;36.20;;;;;6.69;61.82;100697.06;2092858;28;46329;-65
2022/12/04 03:31:25;;;;;;;;;37.00;33.60;;;;;6.68;61.76;100695.31;2089219;28;46299;-63
2022/12/04 03:32:29;;;;;;;;;32.80;30.00;;;;;6.68;61.93;100687.41;2090711;28;45821;-64
2022/12/04 03:33:40;;;;;;;;;31.80;30.80;;;;;6.68;61.77;100697.09;2089244;28;46900;-62
2022/12/04 03:34:53;;;;;;;;;39.60;35.40;;;;;6.69;61.94;100690.91;2088994;28;46506;-64
2022/12/04 03:36:19;;;;;;;;;37.20;31.80;;;;;6.70;61.77;100696.19;2089709;28;46771;-64
2022/12/04 03:37:30;;;;;;;;;36.60;32.00;;;;;6.70;61.68;100695.31;2085484;28;46742;-63
2022/12/04 03:38:46;;;;;;;;;37.40;31.00;;;;;6.70;61.64;100690.03;2070243;28;46566;-61
2022/12/04 03:39:57;;;;;;;;;31.80;30.20;;;;;6.69;61.58;100690.91;2069982;28;46436;-64
2022/12/04 03:41:24;;;;;;;;;35.40;32.80;;;;;6.68;61.70;100690.03;2084423;28;45814;-63
2022/12/04 03:42:38;;;;;;;;;33.60;30.00;;;;;6.66;61.69;100683.91;2087862;28;46953;-63
2022/12/04 03:43:50;;;;;;;;;40.60;35.20;;;;;6.65;61.55;100689.19;2087405;28;46606;-63
2022/12/04 03:45:02;;;;;;;;;36.60;34.60;;;;;6.64;61.73;100695.34;2094191;28;46544;-63
2022/12/04 03:46:10;;;;;;;;;39.40;35.00;;;;;6.65;61.88;100692.72;2091915;28;46662;-64
2022/12/04 03:47:18;;;;;;;;;34.60;32.60;;;;;6.66;61.60;100697.09;2092235;28;46897;-63
2022/12/04 03:48:28;;;;;;;;;34.20;32.20;;;;;6.66;61.98;100689.19;2095730;28;46953;-63
2022/12/04 03:49:53;;;;;;;;;36.80;32.40;;;;;6.66;61.64;100691.81;2085540;28;46410;-63
2022/12/04 03:51:11;;;;;;;;;33.20;29.20;;;;;6.65;61.37;100687.44;2088313;28;46924;-63
2022/12/04 03:52:19;;;;;;;;;40.00;35.80;;;;;6.65;61.68;100687.44;2089171;28;46782;-62
2022/12/04 03:53:46;;;;;;;;;35.00;31.20;;;;;6.67;61.77;100680.38;2080017;28;46908;-63
2022/12/04 03:55:01;;;;;;;;;42.80;36.40;;;;;6.67;61.59;100679.50;2086668;28;45794;-63
2022/12/04 03:56:14;;;;;;;;;33.60;32.40;;;;;6.66;61.86;100678.63;2090819;28;46559;-64
2022/12/04 03:57:21;;;;;;;;;33.80;33.00;;;;;6.66;62.04;100675.13;2087233;28;45899;-64
2022/12/04 03:58:28;;;;;;;;;2.60;0.00;;;;;6.66;61.65;100677.75;2081888;28;46918;-63
2022/12/04 03:59:46;;;;;;;;;40.20;35.80;;;;;6.65;61.62;100665.47;2087018;28;46584;-63
2022/12/04 04:00:51;;;;;;;;;41.00;36.00;;;;;6.66;61.64;100667.22;2087439;28;45901;-62
2022/12/04 04:01:56;;;;;;;;;41.40;34.60;;;;;6.65;61.88;100671.63;2089268;28;46384;-64
2022/12/04 04:03:08;;;;;;;;;33.60;31.80;;;;;6.64;62.08;100663.72;2091404;28;46632;-64
2022/12/04 04:04:12;;;;;;;;;40.40;32.20;;;;;6.65;61.48;100657.56;2095039;28;45665;-63
2022/12/04 04:05:15;;;;;;;;;38.40;34.40;;;;;6.67;61.68;100655.78;2090187;28;46451;-64
2022/12/04 04:06:21;;;;;;;;;41.60;34.60;;;;;6.66;61.92;100651.38;2096273;28;46602;-63
2022/12/04 04:07:42;;;;;;;;;34.20;30.20;;;;;6.65;61.92;100644.38;2096281;28;46359;-63
2022/12/04 04:08:47;;;;;;;;;33.20;28.40;;;;;6.64;61.74;100635.59;2096401;28;46813;-64
2022/12/04 04:09:52;;;;;;;;;40.60;35.60;;;;;6.65;61.78;100641.72;2095670;28;46557;-61
2022/12/04 04:10:59;;;;;;;;;38.60;35.40;;;;;6.65;62.19;100636.47;2096533;28;46670;-62
2022/12/04 04:12:08;;;;;;;;;35.60;31.00;;;;;6.65;61.87;100626.78;2096133;28;47651;-64
2022/12/04 04:24:56;;;;;;;;;32.80;32.00;;;;;6.53;61.73;100616.31;2092978;28;46651;-63
2022/12/04 04:25:59;;;;;;;;;30.80;28.80;;;;;6.51;61.73;100614.59;2070464;28;46412;-64
2022/12/04 04:27:00;;;;;;;;;32.00;31.80;;;;;6.49;61.85;100604.06;2068551;28;46184;-63
2022/12/04 04:28:00;;;;;;;;;34.40;32.40;;;;;6.49;62.17;100604.94;2069069;28;46752;-64
2022/12/04 04:29:01;;;;;;;;;36.50;33.75;;;;;6.49;62.07;100599.66;2069558;28;46963;-64
2022/12/04 04:30:01;;;;;;;;;35.75;34.75;;;;;6.50;62.08;100605.81;2070574;28;46207;-63
2022/12/04 04:31:11;;;;;;;;;34.00;29.50;;;;;6.50;62.20;100600.53;2070030;28;46366;-63
2022/12/04 04:32:13;;;;;;;;;30.80;29.00;;;;;6.49;62.19;100597.03;2070184;28;46620;-63
2022/12/04 04:33:15;;;;;;;;;33.20;33.00;;;;;6.50;61.76;100605.81;2070564;28;46467;-63
2022/12/04 04:34:33;;;;;;;;;32.60;30.20;;;;;6.49;62.07;100607.56;2070578;28;45196;-64
2022/12/04 04:35:51;;;;;;;;;40.40;35.20;;;;;6.50;62.01;100608.44;2070360;28;46522;-63
2022/12/04 04:37:01;;;;;;;;;37.20;32.20;;;;;6.49;62.06;100609.34;2070074;28;46387;-63
2022/12/04 04:38:20;;;;;;;;;32.60;31.00;;;;;6.50;61.94;100608.44;2062413;28;46532;-63
2022/12/04 04:39:24;;;;;;;;;33.40;31.60;;;;;6.51;61.94;100620.72;2064645;28;47192;-63
2022/12/04 04:40:56;;;;;;;;;29.20;28.20;;;;;6.48;62.31;100621.63;2070624;28;46848;-63
2022/12/04 04:42:24;;;;;;;;;37.00;33.00;;;;;6.50;62.00;100624.25;2022843;29;46914;-64
2022/12/04 04:43:33;;;;;;;;;34.20;32.40;;;;;6.49;62.00;100617.25;2015101;29;46973;-65
2022/12/04 04:44:49;;;;;;;;;32.80;32.00;;;;;6.51;62.14;100619.88;2021173;29;46714;-63
2022/12/04 04:46:12;;;;;;;;;32.40;32.40;;;;;6.49;62.15;100623.38;2022884;29;46831;-62
2022/12/04 04:47:22;;;;;;;;;38.60;36.20;;;;;6.49;62.33;100620.75;2022560;29;46396;-64
2022/12/04 04:48:28;;;;;;;;;29.20;28.40;;;;;6.50;62.01;100626.91;2030348;29;47148;-65
2022/12/04 04:49:32;;;;;;;;;31.60;31.60;;;;;6.51;62.31;100620.72;2022389;29;46980;-62
2022/12/04 04:50:34;;;;;;;;;31.60;31.00;;;;;6.50;62.14;100621.63;2022309;29;46573;-64
2022/12/04 04:51:35;;;;;;;;;35.75;33.50;;;;;6.49;61.87;100618.13;2022156;29;46929;-63
2022/12/04 04:52:39;;;;;;;;;35.00;32.80;;;;;6.51;61.93;100612.81;2022431;29;46033;-65
2022/12/04 04:53:50;;;;;;;;;38.00;33.40;;;;;6.50;62.23;100613.72;2021610;29;46672;-62
2022/12/04 04:54:51;;;;;;;;;28.20;26.20;;;;;6.51;62.03;100622.50;2022349;29;46617;-65
2022/12/04 04:55:52;;;;;;;;;38.25;35.00;;;;;6.47;61.97;100619.84;2022388;29;46511;-63
2022/12/04 04:56:52;;;;;;;;;34.75;31.50;;;;;6.46;62.01;100620.75;2022457;29;46698;-65
2022/12/04 04:57:52;;;;;;;;;31.50;30.50;;;;;6.46;62.09;100623.38;2022517;29;46510;-63
2022/12/04 04:58:53;;;;;;;;;32.75;31.25;;;;;6.45;62.00;100624.28;2022286;29;46728;-64
2022/12/04 04:59:53;;;;;;;;;33.50;32.00;;;;;6.44;62.10;100621.66;2022065;29;46928;-63
2022/12/04 05:01:02;;;;;;;;;35.75;31.00;;;;;6.46;61.94;100630.41;2022342;29;46358;-61
2022/12/04 05:02:03;;;;;;;;;29.80;28.20;;;;;6.46;62.47;100631.28;2022480;29;46546;-62
2022/12/04 05:03:04;;;;;;;;;23.25;22.75;;;;;6.47;62.24;100630.41;2022836;29;45744;-64
2022/12/04 05:04:05;;;;;;;;;38.00;34.50;;;;;6.49;62.54;100633.06;2054021;28;46578;-64
2022/12/04 05:05:06;;;;;;;;;39.20;35.40;;;;;6.49;62.14;100628.66;2053936;28;46762;-63
2022/12/04 05:06:07;;;;;;;;;42.00;35.25;;;;;6.51;62.32;100641.81;2055383;28;46308;-62
2022/12/04 05:07:07;;;;;;;;;42.60;36.60;;;;;6.52;62.03;100635.66;2055730;28;46444;-62
2022/12/04 05:08:08;;;;;;;;;34.00;33.75;;;;;6.54;62.36;100633.00;2055380;28;46743;-63
2022/12/04 05:09:08;;;;;;;;;43.00;36.50;;;;;6.54;61.96;100631.25;2039472;28;46353;-65
2022/12/04 05:10:09;;;;;;;;;36.00;32.25;;;;;6.55;62.34;100627.72;2039170;28;45289;-64
2022/12/04 05:11:12;;;;;;;;;34.60;32.20;;;;;6.56;61.99;100631.25;2055387;28;46519;-64
2022/12/04 05:12:12;;;;;;;;;25.80;24.40;;;;;6.55;62.29;100622.47;2050683;28;46713;-63
2022/12/04 05:13:14;;;;;;;;;33.00;31.50;;;;;6.56;62.22;100625.97;2035501;28;46181;-63
2022/12/04 05:14:14;;;;;;;;;37.80;31.20;;;;;6.56;61.98;100623.31;2032055;28;46402;-64
2022/12/04 05:15:15;;;;;;;;;30.25;25.25;;;;;6.54;61.86;100628.63;2038678;28;45890;-63